Enter the Airport ICAO Code

Search by Airport or City

Current Weather

SARI | Cataratas del Iguaz˙ International Airport

Puerto Iguaz˙,áMisiones, Argentina

Last Update 9 Minutes Ago

Light Rain, Mist

Temperature of 15 ║C

Calm Wind

Temperature

15 ║C

Dew Point Temperature

15 ║C

Relative Humidity

100 %

Wind Direction

None

Wind Velocity

0 km/h (0 kt)

Gusts

None

Visibility

Reduced to 2.0 Kilometers

Sea Level Pressure

1019 hPa (Hectopascals)

Layers of Clouds

30% to 60% of Sky Covered from 244 mts (800 ft) Above Ground Level.

90% to 100% of Sky Covered from 1219 mts (4000 ft) Above Ground Level.

METAR SARI 191200Z 00000KT 2000 -RA BR SCT008 OVC040 15/15 Q1019 RETS

Weather Forecast

SARI | Cataratas del Iguaz˙ International Airport

Puerto Iguaz˙,áMisiones, Argentina

Forecast valid for the next 24 Hours

From now on it is expected:

Thunderstorm with Rain

Light Winds from Variable Directions

In 8 to 10 hours it is expected the begining of:

Mostly Cloudy Sky

Maximum Temperature

21 ║C in 7 Hours

Minimum Temperature

No Data

TAF SARI 191100Z 1912/2012 VRB02KT 3000 TSRA BKN005 FEW045CB TX21/1919Z TN12/2010Z BECMG 1920/1922 9999 NSW BKN025 BKN050 PROB40 2008/2012 1500 BR NSC